createdAt,value
2022-12-18T00:01:49.596Z,58.05
2022-12-18T00:06:53.203Z,67.67
2022-12-18T00:11:56.107Z,68.16
2022-12-18T00:17:01.881Z,60.60
2022-12-18T00:22:04.883Z,53.47
2022-12-18T00:27:07.892Z,55.56
2022-12-18T00:32:10.805Z,58.75
2022-12-18T00:37:19.741Z,62.27
2022-12-18T00:42:41.795Z,70.34
2022-12-18T00:47:44.653Z,65.36
2022-12-18T00:52:47.808Z,57.83
2022-12-18T00:57:53.383Z,53.85
2022-12-18T01:02:56.403Z,59.14
2022-12-18T01:08:00.407Z,68.25
2022-12-18T01:13:03.314Z,63.42
2022-12-18T01:18:06.727Z,53.82
2022-12-18T01:23:09.839Z,55.06
2022-12-18T01:28:12.740Z,58.33
2022-12-18T01:33:15.748Z,58.96
2022-12-18T01:38:18.959Z,69.04
2022-12-18T01:43:21.867Z,68.59
2022-12-18T01:54:07.650Z,53.92
2022-12-18T01:59:12.597Z,57.72
2022-12-18T02:04:27.485Z,65.12
2022-12-18T02:10:00.900Z,65.13
2022-12-18T02:15:13.983Z,53.75
2022-12-18T02:20:37.021Z,56.52
2022-12-18T02:26:18.151Z,66.74
2022-12-18T02:31:27.253Z,61.37
2022-12-18T02:36:33.552Z,51.86
2022-12-18T02:41:37.719Z,56.40
2022-12-18T02:46:44.858Z,58.72
2022-12-18T02:52:08.683Z,70.42
2022-12-18T02:57:39.032Z,67.75
2022-12-18T03:02:48.201Z,56.29
2022-12-18T03:08:00.611Z,54.59
2022-12-18T03:13:07.614Z,58.80
2022-12-18T03:18:38.878Z,63.36
2022-12-18T03:23:47.210Z,70.24
2022-12-18T03:28:54.721Z,65.68
2022-12-18T03:34:02.337Z,60.30
2022-12-18T03:39:05.549Z,55.07
2022-12-18T03:44:36.101Z,52.82
2022-12-18T03:49:58.257Z,51.92
2022-12-18T03:55:04.132Z,50.80
2022-12-18T04:00:11.806Z,47.83
2022-12-18T04:05:16.902Z,48.75
2022-12-18T04:10:20.214Z,48.93
2022-12-18T04:15:23.132Z,48.64
2022-12-18T04:20:26.021Z,48.41
2022-12-18T04:25:28.925Z,48.54
2022-12-18T04:30:31.932Z,48.90
2022-12-18T04:35:34.838Z,49.02
2022-12-18T04:40:38.933Z,48.52
2022-12-18T04:45:42.197Z,48.96
2022-12-18T04:50:45.205Z,48.73
2022-12-18T04:55:48.198Z,48.33
2022-12-18T05:00:51.101Z,47.57
2022-12-18T05:05:54.281Z,47.79
2022-12-18T05:11:06.737Z,47.70
2022-12-18T05:16:10.076Z,48.18
2022-12-18T05:21:12.959Z,48.22
2022-12-18T05:26:18.521Z,48.35
2022-12-18T05:31:21.489Z,48.16
2022-12-18T05:36:24.842Z,46.56
2022-12-18T05:41:29.202Z,46.44
2022-12-18T05:46:32.164Z,54.45
2022-12-18T05:51:35.122Z,61.60
2022-12-18T05:56:37.948Z,68.14
2022-12-18T06:01:40.881Z,65.25
2022-12-18T06:06:44.005Z,56.31
2022-12-18T06:11:46.907Z,52.75
2022-12-18T06:16:52.664Z,54.31
2022-12-18T06:21:55.684Z,66.31
2022-12-18T06:26:58.589Z,69.27
2022-12-18T06:32:01.553Z,61.93
2022-12-18T06:37:05.011Z,55.03
2022-12-18T06:42:08.427Z,55.94
2022-12-18T06:47:11.740Z,63.81
2022-12-18T06:52:17.619Z,69.15
2022-12-18T06:57:20.519Z,61.90
2022-12-18T07:02:23.509Z,57.09
2022-12-18T07:07:26.538Z,64.09
2022-12-18T07:12:29.437Z,65.68
2022-12-18T07:17:32.448Z,58.77
2022-12-18T07:22:35.345Z,55.17
2022-12-18T07:27:38.186Z,64.59
2022-12-18T07:32:41.158Z,62.50
2022-12-18T07:37:43.977Z,57.10
2022-12-18T07:42:47.004Z,58.16
2022-12-18T07:47:49.867Z,63.39
2022-12-18T07:52:52.770Z,66.61
2022-12-18T07:58:00.857Z,60.56
2022-12-18T08:03:04.342Z,54.36
2022-12-18T08:08:07.629Z,61.93
2022-12-18T08:13:10.429Z,67.72
2022-12-18T08:18:14.579Z,58.98
2022-12-18T08:23:17.568Z,57.17
2022-12-18T08:28:20.452Z,65.50
2022-12-18T08:33:23.477Z,61.39
2022-12-18T08:38:26.382Z,56.62
2022-12-18T08:43:48.947Z,62.97
2022-12-18T08:48:53.428Z,65.57
2022-12-18T08:53:56.336Z,58.32
2022-12-18T08:58:59.399Z,57.44
2022-12-18T09:04:03.228Z,63.13
2022-12-18T09:09:07.258Z,60.86
2022-12-18T09:14:10.876Z,57.62
2022-12-18T09:19:13.885Z,63.61
2022-12-18T09:24:17.922Z,61.49
2022-12-18T09:29:20.926Z,55.78
2022-12-18T09:34:24.034Z,61.48
2022-12-18T09:39:26.943Z,66.11
2022-12-18T09:44:47.818Z,59.76
2022-12-18T09:49:56.194Z,56.16
2022-12-18T09:55:14.556Z,62.44
2022-12-18T10:00:24.119Z,64.80
2022-12-18T10:05:33.069Z,54.14
2022-12-18T10:10:53.478Z,61.53
2022-12-18T10:16:21.218Z,58.98
2022-12-18T10:21:38.915Z,51.16
2022-12-18T10:26:43.111Z,56.89
2022-12-18T10:31:45.951Z,53.02
2022-12-18T10:36:49.060Z,53.35
2022-12-18T10:41:52.988Z,51.23
2022-12-18T10:47:08.756Z,52.49
2022-12-18T10:52:23.168Z,50.31
2022-12-18T10:57:41.638Z,48.54
2022-12-18T11:02:44.783Z,46.17
2022-12-18T11:07:51.234Z,44.49
2022-12-18T11:12:54.242Z,45.45
2022-12-18T11:17:57.556Z,41.92
2022-12-18T11:23:14.490Z,41.53
2022-12-18T11:28:26.739Z,39.45
2022-12-18T11:33:29.725Z,39.96
2022-12-18T11:38:40.386Z,35.84
2022-12-18T11:43:52.247Z,35.61
2022-12-18T11:49:07.820Z,36.98
2022-12-18T11:54:15.845Z,37.28
2022-12-18T11:59:26.938Z,36.51
2022-12-18T12:04:45.613Z,33.49
2022-12-18T12:09:51.708Z,34.22
2022-12-18T12:15:25.420Z,36.35
2022-12-18T12:20:49.363Z,37.42
2022-12-18T12:26:07.276Z,38.21
2022-12-18T12:31:33.357Z,36.61
2022-12-18T12:36:45.545Z,38.21
2022-12-18T12:42:08.004Z,40.19
2022-12-18T12:47:33.520Z,37.32
2022-12-18T12:52:53.165Z,38.39
2022-12-18T12:58:16.220Z,39.86
2022-12-18T13:03:48.595Z,38.93
2022-12-18T13:08:57.784Z,39.52
2022-12-18T13:14:00.664Z,40.61
2022-12-18T13:19:04.080Z,41.88
2022-12-18T13:24:23.163Z,42.80
2022-12-18T13:29:46.806Z,43.41
2022-12-18T13:35:10.569Z,45.47
2022-12-18T13:40:47.902Z,47.53
2022-12-18T13:46:08.517Z,48.16
2022-12-18T13:51:20.121Z,49.38
2022-12-18T13:56:26.243Z,51.85
2022-12-18T14:01:31.090Z,54.48
2022-12-18T14:06:34.035Z,56.95
2022-12-18T14:11:38.466Z,58.95
2022-12-18T14:16:43.940Z,60.75
2022-12-18T14:21:50.710Z,64.54
2022-12-18T14:26:53.626Z,57.52
2022-12-18T14:32:25.677Z,58.13
2022-12-18T14:37:28.562Z,63.53
2022-12-18T14:42:31.605Z,58.47
2022-12-18T14:47:34.483Z,59.47
2022-12-18T14:52:37.347Z,65.53
2022-12-18T14:57:43.345Z,58.93
2022-12-18T15:02:54.371Z,56.54
2022-12-18T15:08:00.483Z,61.57
2022-12-18T15:13:04.429Z,65.63
2022-12-18T15:18:13.092Z,63.87
2022-12-18T15:23:18.917Z,55.47
2022-12-18T15:28:40.494Z,56.65
2022-12-18T15:33:47.223Z,64.27
2022-12-18T15:39:02.133Z,62.46
2022-12-18T15:44:25.773Z,53.85
2022-12-18T15:49:28.602Z,54.01
2022-12-18T15:54:49.873Z,59.86
2022-12-18T15:59:55.189Z,65.95
2022-12-18T16:04:58.277Z,61.66
2022-12-18T16:10:02.421Z,54.96
2022-12-18T16:15:07.177Z,59.39
2022-12-18T16:20:21.874Z,64.89
2022-12-18T16:25:27.511Z,63.40
2022-12-18T16:30:37.908Z,57.48
2022-12-18T16:35:41.532Z,62.37
2022-12-18T16:41:03.621Z,66.05
2022-12-18T16:46:06.469Z,60.81
2022-12-18T16:51:09.347Z,59.05
2022-12-18T16:56:12.162Z,64.42
2022-12-18T17:01:15.189Z,62.12
2022-12-18T17:06:18.056Z,60.67
2022-12-18T17:11:21.822Z,65.28
2022-12-18T17:16:25.768Z,58.44
2022-12-18T17:21:29.042Z,59.83
2022-12-18T17:26:31.975Z,63.91
2022-12-18T17:31:35.031Z,57.55
2022-12-18T17:36:37.891Z,61.27
2022-12-18T17:41:40.766Z,65.88
2022-12-18T17:46:44.253Z,59.66
2022-12-18T17:51:47.484Z,64.04
2022-12-18T17:56:50.435Z,60.71
2022-12-18T18:01:53.406Z,57.16
2022-12-18T18:06:56.706Z,63.08
2022-12-18T18:12:17.845Z,67.09
2022-12-18T18:17:20.887Z,62.50
2022-12-18T18:22:24.027Z,53.99
2022-12-18T18:27:27.447Z,57.90
2022-12-18T18:32:30.447Z,62.84
2022-12-18T18:37:34.276Z,64.11
2022-12-18T18:42:37.088Z,58.33
2022-12-18T18:47:40.033Z,52.20
2022-12-18T18:52:42.908Z,56.95
2022-12-18T18:57:47.381Z,59.57
2022-12-18T19:02:50.454Z,68.04
2022-12-18T19:07:53.515Z,67.91
2022-12-18T19:13:14.710Z,62.60
2022-12-18T19:18:17.870Z,56.45
2022-12-18T19:23:20.967Z,50.99
2022-12-18T19:28:26.387Z,48.05
2022-12-18T19:33:48.178Z,45.88
2022-12-18T19:38:52.540Z,44.56
2022-12-18T19:43:55.573Z,43.95
2022-12-18T19:49:00.087Z,43.71
2022-12-18T19:54:03.836Z,43.89
2022-12-18T19:59:06.823Z,44.25
2022-12-18T20:04:09.791Z,43.67
2022-12-18T20:09:12.878Z,44.56
2022-12-18T20:14:19.604Z,44.53
2022-12-18T20:19:27.248Z,44.08
2022-12-18T20:24:30.144Z,44.06
2022-12-18T20:29:33.350Z,43.62
2022-12-18T20:34:36.696Z,43.50
2022-12-18T20:39:40.375Z,43.33
2022-12-18T20:44:43.741Z,42.99
2022-12-18T20:49:46.597Z,42.17
2022-12-18T20:54:49.476Z,41.24
2022-12-18T20:59:52.433Z,39.80
2022-12-18T21:04:55.229Z,39.13
2022-12-18T21:09:58.109Z,37.94
2022-12-18T21:15:01.944Z,38.33
2022-12-18T21:20:05.227Z,39.16
2022-12-18T21:25:09.920Z,39.31
2022-12-18T21:30:14.650Z,39.68
2022-12-18T21:35:17.852Z,40.28
2022-12-18T21:40:22.851Z,40.29
2022-12-18T21:45:26.127Z,40.62
2022-12-18T21:50:28.971Z,40.95
2022-12-18T21:55:31.936Z,41.13
2022-12-18T22:00:34.755Z,41.29
2022-12-18T22:05:37.629Z,41.17
2022-12-18T22:10:40.667Z,41.13
2022-12-18T22:15:44.093Z,40.30
2022-12-18T22:20:47.845Z,39.39
2022-12-18T22:25:50.664Z,39.10
2022-12-18T22:30:59.012Z,38.74
2022-12-18T22:36:06.941Z,38.91
2022-12-18T22:41:09.785Z,39.50
2022-12-18T22:46:17.853Z,38.86
2022-12-18T22:51:21.109Z,38.97
2022-12-18T22:56:24.111Z,39.53
2022-12-18T23:01:29.841Z,39.41
2022-12-18T23:06:32.731Z,38.84
2022-12-18T23:11:35.588Z,38.23
2022-12-18T23:16:38.470Z,37.98
2022-12-18T23:21:41.738Z,39.23
2022-12-18T23:26:44.633Z,39.75
2022-12-18T23:31:47.523Z,39.31
2022-12-18T23:36:54.614Z,38.94
2022-12-18T23:41:59.306Z,38.85
2022-12-18T23:47:03.601Z,38.88
2022-12-18T23:52:06.822Z,39.33
2022-12-18T23:57:09.665Z,39.32
